<?xml version="1.0" encoding="utf-8"?>
<gpx xmlns:xsi="http://www.w3.org/2001/XMLSchema-instance" xmlns:xsd="http://www.w3.org/2001/XMLSchema" version="1.1" creator="Shapelink.com" xmlns="http://www.topografix.com/GPX/1/1" xmlns:gpxtpx="http://www.garmin.com/xmlschemas/TrackPointExtension/v1">
  <metadata>
    <name>Gåing 0.32 km, 2012-04-22</name>
    <desc></desc>
    <author><name>Mikael Blom</name></author> 
    <time>2012-04-22T12:48:13Z</time>
  </metadata>
  <trk>
    <name>Gåing 0.32 km, 2012-04-22</name>
    <trkseg>
      <trkpt lat="59.9790013" lon="17.7390429">
        <ele>54.9324</ele>
        <time>2012-04-22T12:48:13Z</time>
      </trkpt>
      <trkpt lat="59.9791247" lon="17.7389918">
        <ele>53.9712</ele>
        <time>2012-04-22T12:48:22Z</time>
      </trkpt>
      <trkpt lat="59.9792104" lon="17.7389035">
        <ele>57.3358</ele>
        <time>2012-04-22T12:48:29Z</time>
      </trkpt>
      <trkpt lat="59.9793788" lon="17.7388457">
        <ele>49.1646</ele>
        <time>2012-04-22T12:48:40Z</time>
      </trkpt>
      <trkpt lat="59.9794079" lon="17.7388337">
        <ele>48.2034</ele>
        <time>2012-04-22T12:48:42Z</time>
      </trkpt>
      <trkpt lat="59.9794816" lon="17.7387563">
        <ele>48.684</ele>
        <time>2012-04-22T12:48:48Z</time>
      </trkpt>
      <trkpt lat="59.9795142" lon="17.73869">
        <ele>50.6066</ele>
        <time>2012-04-22T12:48:51Z</time>
      </trkpt>
      <trkpt lat="59.979625" lon="17.7386356">
        <ele>58.2971</ele>
        <time>2012-04-22T12:48:58Z</time>
      </trkpt>
      <trkpt lat="59.9797202" lon="17.7386187">
        <ele>59.2584</ele>
        <time>2012-04-22T12:49:03Z</time>
      </trkpt>
      <trkpt lat="59.9798378" lon="17.738709">
        <ele>53.4905</ele>
        <time>2012-04-22T12:49:08Z</time>
      </trkpt>
      <trkpt lat="59.9799563" lon="17.7386954">
        <ele>49.1646</ele>
        <time>2012-04-22T12:49:16Z</time>
      </trkpt>
      <trkpt lat="59.9800379" lon="17.7387041">
        <ele>44.358</ele>
        <time>2012-04-22T12:49:22Z</time>
      </trkpt>
      <trkpt lat="59.9800755" lon="17.7387001">
        <ele>43.8773</ele>
        <time>2012-04-22T12:49:25Z</time>
      </trkpt>
      <trkpt lat="59.9801275" lon="17.7387206">
        <ele>40.9934</ele>
        <time>2012-04-22T12:49:29Z</time>
      </trkpt>
      <trkpt lat="59.9802575" lon="17.7387576">
        <ele>38.5901</ele>
        <time>2012-04-22T12:49:38Z</time>
      </trkpt>
      <trkpt lat="59.980344" lon="17.7387906">
        <ele>36.1868</ele>
        <time>2012-04-22T12:49:44Z</time>
      </trkpt>
      <trkpt lat="59.9804124" lon="17.7387934">
        <ele>37.1481</ele>
        <time>2012-04-22T12:49:49Z</time>
      </trkpt>
      <trkpt lat="59.9805557" lon="17.7387561">
        <ele>40.5128</ele>
        <time>2012-04-22T12:49:56Z</time>
      </trkpt>
      <trkpt lat="59.9806579" lon="17.7386762">
        <ele>50.126</ele>
        <time>2012-04-22T12:50:02Z</time>
      </trkpt>
      <trkpt lat="59.9807915" lon="17.7385949">
        <ele>53.9712</ele>
        <time>2012-04-22T12:50:09Z</time>
      </trkpt>
      <trkpt lat="59.9808071" lon="17.7386186">
        <ele>52.0486</ele>
        <time>2012-04-22T12:50:11Z</time>
      </trkpt>
      <trkpt lat="59.9809036" lon="17.7385809">
        <ele>49.1646</ele>
        <time>2012-04-22T12:50:17Z</time>
      </trkpt>
      <trkpt lat="59.9810041" lon="17.7385964">
        <ele>46.2806</ele>
        <time>2012-04-22T12:50:25Z</time>
      </trkpt>
      <trkpt lat="59.9810999" lon="17.7385751">
        <ele>52.0486</ele>
        <time>2012-04-22T12:50:31Z</time>
      </trkpt>
      <trkpt lat="59.981164" lon="17.7386078">
        <ele>53.4905</ele>
        <time>2012-04-22T12:50:37Z</time>
      </trkpt>
      <trkpt lat="59.9812842" lon="17.7385354">
        <ele>56.8551</ele>
        <time>2012-04-22T12:50:42Z</time>
      </trkpt>
      <trkpt lat="59.98135" lon="17.7385189">
        <ele>57.8165</ele>
        <time>2012-04-22T12:50:47Z</time>
      </trkpt>
      <trkpt lat="59.9814614" lon="17.73845">
        <ele>62.1423</ele>
        <time>2012-04-22T12:50:53Z</time>
      </trkpt>
      <trkpt lat="59.9815225" lon="17.7384208">
        <ele>59.7391</ele>
        <time>2012-04-22T12:50:59Z</time>
      </trkpt>
      <trkpt lat="59.9816556" lon="17.7383809">
        <ele>68.8716</ele>
        <time>2012-04-22T12:51:06Z</time>
      </trkpt>
      <trkpt lat="59.981727" lon="17.7383721">
        <ele>69.8329</ele>
        <time>2012-04-22T12:51:10Z</time>
      </trkpt>
      <trkpt lat="59.981769" lon="17.7383101">
        <ele>65.0264</ele>
        <time>2012-04-22T12:51:16Z</time>
      </trkpt>
      <trkpt lat="59.9817783" lon="17.7383126">
        <ele>63.1036</ele>
        <time>2012-04-22T12:51:17Z</time>
      </trkpt>
    </trkseg>
  </trk>
</gpx>